createdAt,value
2023-02-21T00:02:08.184Z,101813.94
2023-02-21T00:04:53.640Z,101814.69
2023-02-21T00:07:39.395Z,101832.03
2023-02-21T00:10:25.269Z,101847.78
2023-02-21T00:13:10.845Z,101854.72
2023-02-21T00:16:02.979Z,101837.56
2023-02-21T00:18:57.891Z,101811.28
2023-02-21T00:21:44.311Z,101816.19
2023-02-21T00:24:32.806Z,101833.16
2023-02-21T00:27:20.679Z,101844.38
2023-02-21T00:30:07.660Z,101840.22
2023-02-21T00:32:54.302Z,101832.66
2023-02-21T00:35:40.289Z,101824.94
2023-02-21T00:38:26.685Z,101830.28
2023-02-21T00:41:19.518Z,101834.13
2023-02-21T00:44:05.111Z,101822.25
2023-02-21T00:46:50.497Z,101829.88
2023-02-21T00:49:35.965Z,101832.28
2023-02-21T00:52:21.705Z,101835.41
2023-02-21T00:55:07.720Z,101840.41
2023-02-21T00:57:53.055Z,101844.06
2023-02-21T01:00:42.047Z,101834.28
2023-02-21T01:03:28.442Z,101814.63
2023-02-21T01:06:15.139Z,101822.94
2023-02-21T01:09:03.130Z,101813.59
2023-02-21T01:11:51.449Z,101816.94
2023-02-21T01:14:38.051Z,101824.03
2023-02-21T01:17:23.628Z,101820.03
2023-02-21T01:20:08.999Z,101812.97
2023-02-21T01:22:56.145Z,101797.53
2023-02-21T01:25:41.602Z,101814.00
2023-02-21T01:28:29.853Z,101809.66
2023-02-21T01:31:15.312Z,101798.22
2023-02-21T01:34:01.147Z,101799.97
2023-02-21T01:36:47.562Z,101802.81
2023-02-21T01:39:33.553Z,101813.03
2023-02-21T01:42:19.971Z,101819.81
2023-02-21T01:45:07.389Z,101818.25
2023-02-21T01:47:52.707Z,101803.09
2023-02-21T01:50:45.069Z,101801.13
2023-02-21T01:53:35.185Z,101791.31
2023-02-21T01:56:25.267Z,101806.78
2023-02-21T01:59:13.249Z,101813.38
2023-02-21T02:02:37.788Z,101810.03
2023-02-21T02:05:24.536Z,101805.38
2023-02-21T02:08:11.347Z,101812.19
2023-02-21T02:11:00.958Z,101797.97
2023-02-21T02:13:54.770Z,101784.31
2023-02-21T02:16:33.616Z,101790.59
2023-02-21T02:19:29.487Z,101791.25
2023-02-21T02:22:42.109Z,101788.69
2023-02-21T02:25:14.845Z,101793.06
2023-02-21T02:27:52.152Z,101791.44
2023-02-21T02:30:37.777Z,101782.50
2023-02-21T02:33:30.104Z,101788.75
2023-02-21T02:36:16.058Z,101785.47
2023-02-21T02:38:56.198Z,101782.84
2023-02-21T02:41:43.360Z,101784.63
2023-02-21T02:44:16.346Z,101784.78
2023-02-21T02:46:44.091Z,101791.06
2023-02-21T02:49:23.041Z,101789.78
2023-02-21T02:51:50.504Z,101791.63
2023-02-21T02:54:19.700Z,101776.16
2023-02-21T02:56:47.098Z,101769.50
2023-02-21T02:59:22.644Z,101757.00
2023-02-21T03:01:49.703Z,101761.53
2023-02-21T03:04:32.834Z,101760.47
2023-02-21T03:07:23.120Z,101759.91
2023-02-21T03:09:58.509Z,101753.69
2023-02-21T03:12:41.355Z,101754.28
2023-02-21T03:15:17.501Z,101747.53
2023-02-21T03:18:00.126Z,101754.63
2023-02-21T03:20:31.330Z,101756.94
2023-02-21T03:22:58.708Z,101743.66
2023-02-21T03:25:28.736Z,101744.91
2023-02-21T03:27:59.084Z,101743.00
2023-02-21T03:30:30.219Z,101739.69
2023-02-21T03:32:58.149Z,101732.97
2023-02-21T03:35:29.516Z,101738.19
2023-02-21T03:37:58.301Z,101729.06
2023-02-21T03:40:29.009Z,101734.94
2023-02-21T03:42:58.603Z,101733.13
2023-02-21T03:45:26.964Z,101734.81
2023-02-21T03:48:04.276Z,101726.44
2023-02-21T03:50:32.985Z,101719.56
2023-02-21T03:53:00.042Z,101711.72
2023-02-21T03:55:28.123Z,101728.66
2023-02-21T03:57:56.305Z,101725.56
2023-02-21T04:00:24.143Z,101733.41
2023-02-21T04:02:53.541Z,101730.94
2023-02-21T04:05:35.836Z,101731.63
2023-02-21T04:08:03.516Z,101725.69
2023-02-21T04:10:33.964Z,101725.25
2023-02-21T04:13:04.507Z,101725.59
2023-02-21T04:15:35.735Z,101728.03
2023-02-21T04:18:02.820Z,101727.31
2023-02-21T04:20:29.870Z,101730.59
2023-02-21T04:23:03.530Z,101725.75
2023-02-21T04:25:32.023Z,101729.78
2023-02-21T04:28:04.061Z,101735.91
2023-02-21T04:30:31.274Z,101737.13
2023-02-21T04:32:58.199Z,101725.56
2023-02-21T04:35:26.164Z,101735.69
2023-02-21T04:37:54.307Z,101733.63
2023-02-21T04:40:21.202Z,101728.09
2023-02-21T04:42:47.966Z,101734.91
2023-02-21T04:45:15.946Z,101729.41
2023-02-21T04:47:42.586Z,101729.69
2023-02-21T04:50:09.449Z,101728.38
2023-02-21T04:52:39.326Z,101725.06
2023-02-21T04:55:06.809Z,101720.66
2023-02-21T04:57:33.742Z,101727.41
2023-02-21T05:00:01.308Z,101723.91
2023-02-21T05:02:28.325Z,101727.28
2023-02-21T05:04:54.982Z,101724.56
2023-02-21T05:07:21.770Z,101719.06
2023-02-21T05:09:48.603Z,101710.88
2023-02-21T05:12:15.489Z,101715.03
2023-02-21T05:14:42.250Z,101708.34
2023-02-21T05:17:09.742Z,101723.72
2023-02-21T05:19:36.600Z,101716.53
2023-02-21T05:22:06.639Z,101717.25
2023-02-21T05:24:34.949Z,101712.78
2023-02-21T05:27:02.102Z,101711.25
2023-02-21T05:29:29.840Z,101712.13
2023-02-21T05:31:56.710Z,101702.44
2023-02-21T05:34:23.436Z,101709.50
2023-02-21T05:36:50.344Z,101705.28
2023-02-21T05:39:17.144Z,101706.31
2023-02-21T05:41:48.559Z,101707.22
2023-02-21T05:44:15.431Z,101702.81
2023-02-21T05:46:42.177Z,101693.16
2023-02-21T05:49:09.354Z,101704.03
2023-02-21T05:51:41.826Z,101708.03
2023-02-21T05:54:09.887Z,101711.41
2023-02-21T05:56:41.182Z,101700.44
2023-02-21T05:59:08.890Z,101707.31
2023-02-21T06:01:36.236Z,101702.91
2023-02-21T06:04:03.096Z,101696.06
2023-02-21T06:06:29.936Z,101692.44
2023-02-21T06:08:56.788Z,101694.59
2023-02-21T06:11:25.900Z,101705.34
2023-02-21T06:13:53.549Z,101704.78
2023-02-21T06:16:20.857Z,101687.28
2023-02-21T06:18:56.048Z,101681.66
2023-02-21T06:21:23.642Z,101680.97
2023-02-21T06:23:50.448Z,101685.94
2023-02-21T06:26:19.033Z,101685.63
2023-02-21T06:28:46.727Z,101700.69
2023-02-21T06:31:14.324Z,101693.13
2023-02-21T06:33:41.442Z,101698.78
2023-02-21T06:36:12.968Z,101698.53
2023-02-21T06:38:39.932Z,101697.44
2023-02-21T06:41:08.061Z,101696.50
2023-02-21T06:43:36.881Z,101702.75
2023-02-21T06:46:04.976Z,101708.41
2023-02-21T06:48:32.462Z,101702.81
2023-02-21T06:51:00.708Z,101696.47
2023-02-21T06:53:27.525Z,101704.28
2023-02-21T06:55:54.494Z,101703.25
2023-02-21T06:58:21.367Z,101703.00
2023-02-21T07:00:48.168Z,101707.31
2023-02-21T07:03:14.982Z,101698.47
2023-02-21T07:05:42.258Z,101703.44
2023-02-21T07:08:09.017Z,101704.16
2023-02-21T07:10:35.869Z,101703.09
2023-02-21T07:13:02.592Z,101693.22
2023-02-21T07:15:30.182Z,101711.19
2023-02-21T07:17:56.983Z,101707.28
2023-02-21T07:20:24.237Z,101704.09
2023-02-21T07:22:51.387Z,101714.91
2023-02-21T07:25:20.576Z,101711.16
2023-02-21T07:27:48.685Z,101708.31
2023-02-21T07:30:17.202Z,101709.97
2023-02-21T07:35:10.860Z,101702.91
2023-02-21T07:37:37.809Z,101713.19
2023-02-21T07:40:07.299Z,101707.19
2023-02-21T07:42:34.773Z,101706.53
2023-02-21T07:45:01.643Z,101704.84
2023-02-21T07:47:28.581Z,101710.34
2023-02-21T07:49:55.461Z,101702.97
2023-02-21T07:52:22.917Z,101703.47
2023-02-21T07:54:50.456Z,101707.88
2023-02-21T07:57:17.921Z,101698.72
2023-02-21T07:59:45.814Z,101705.91
2023-02-21T08:02:12.861Z,101716.28
2023-02-21T08:04:40.505Z,101721.63
2023-02-21T08:07:08.547Z,101720.56
2023-02-21T08:09:36.508Z,101718.88
2023-02-21T08:12:03.569Z,101719.56
2023-02-21T08:14:30.438Z,101712.59
2023-02-21T08:16:57.245Z,101719.03
2023-02-21T08:19:24.271Z,101716.50
2023-02-21T08:21:51.189Z,101725.34
2023-02-21T08:24:19.331Z,101720.59
2023-02-21T08:26:46.435Z,101724.00
2023-02-21T08:29:14.522Z,101712.59
2023-02-21T08:31:42.588Z,101709.88
2023-02-21T08:34:09.646Z,101718.66
2023-02-21T08:36:41.995Z,101713.06
2023-02-21T08:39:09.832Z,101718.28
2023-02-21T08:41:42.419Z,101720.66
2023-02-21T08:44:11.246Z,101708.81
2023-02-21T08:46:40.081Z,101711.22
2023-02-21T08:49:06.971Z,101711.97
2023-02-21T08:51:34.138Z,101708.38
2023-02-21T08:54:01.848Z,101701.56
2023-02-21T08:56:28.953Z,101707.19
2023-02-21T08:58:55.961Z,101708.09
2023-02-21T09:01:23.901Z,101701.97
2023-02-21T09:03:51.122Z,101707.28
2023-02-21T09:06:18.515Z,101710.16
2023-02-21T09:08:45.333Z,101699.84
2023-02-21T09:11:12.249Z,101704.66
2023-02-21T09:13:39.112Z,101699.19
2023-02-21T09:16:06.313Z,101696.47
2023-02-21T09:18:33.165Z,101697.69
2023-02-21T09:21:00.187Z,101704.44
2023-02-21T09:23:29.590Z,101700.84
2023-02-21T09:25:57.516Z,101696.75
2023-02-21T09:28:24.930Z,101697.91
2023-02-21T09:30:52.149Z,101698.47
2023-02-21T09:33:19.128Z,101691.19
2023-02-21T09:35:46.092Z,101686.53
2023-02-21T09:38:12.929Z,101681.50
2023-02-21T09:40:43.579Z,101687.78
2023-02-21T09:43:17.588Z,101674.41
2023-02-21T09:45:45.007Z,101676.88
2023-02-21T09:48:17.919Z,101665.28
2023-02-21T09:50:47.026Z,101674.91
2023-02-21T09:53:20.985Z,101669.84
2023-02-21T09:55:49.724Z,101685.06
2023-02-21T09:58:19.624Z,101674.91
2023-02-21T10:00:47.204Z,101668.06
2023-02-21T10:03:56.316Z,101672.50
2023-02-21T10:06:29.632Z,101674.13
2023-02-21T10:09:08.339Z,101672.31
2023-02-21T10:11:45.914Z,101676.75
2023-02-21T10:14:27.794Z,101674.34
2023-02-21T10:17:16.021Z,101676.34
2023-02-21T10:19:44.882Z,101680.63
2023-02-21T10:22:21.304Z,101674.00
2023-02-21T10:24:49.733Z,101684.78
2023-02-21T10:27:22.594Z,101679.19
2023-02-21T10:29:56.312Z,101684.72
2023-02-21T10:32:24.681Z,101679.38
2023-02-21T10:34:55.008Z,101672.97
2023-02-21T10:37:34.902Z,101669.84
2023-02-21T10:40:09.336Z,101671.59
2023-02-21T10:42:59.161Z,101675.47
2023-02-21T10:45:36.382Z,101668.75
2023-02-21T10:48:09.609Z,101663.03
2023-02-21T10:50:58.369Z,101672.09
2023-02-21T10:53:33.634Z,101670.91
2023-02-21T10:56:19.733Z,101662.50
2023-02-21T10:58:49.599Z,101674.06
2023-02-21T11:01:44.171Z,101665.63
2023-02-21T11:04:20.196Z,101662.03
2023-02-21T11:06:51.432Z,101662.44
2023-02-21T11:09:27.213Z,101667.84
2023-02-21T11:12:17.060Z,101659.41
2023-02-21T11:14:50.875Z,101659.72
2023-02-21T11:17:23.152Z,101652.13
2023-02-21T11:19:54.491Z,101656.31
2023-02-21T11:22:23.496Z,101644.22
2023-02-21T11:25:30.540Z,101638.03
2023-02-21T11:28:09.667Z,101639.44
2023-02-21T11:30:44.488Z,101628.94
2023-02-21T11:33:11.478Z,101626.34
2023-02-21T11:35:44.505Z,101629.47
2023-02-21T11:38:59.114Z,101637.78
2023-02-21T11:41:37.938Z,101617.88
2023-02-21T11:44:38.917Z,101619.38
2023-02-21T11:47:29.002Z,101617.09
2023-02-21T11:50:08.987Z,101615.72
2023-02-21T11:52:47.944Z,101615.44
2023-02-21T11:55:26.136Z,101614.19
2023-02-21T11:58:25.809Z,101610.06
2023-02-21T12:01:03.096Z,101608.19
2023-02-21T12:03:59.136Z,101617.13
2023-02-21T12:06:55.659Z,101607.78
2023-02-21T12:09:58.526Z,101606.94
2023-02-21T12:13:03.459Z,101601.47
2023-02-21T12:15:59.934Z,101594.44
2023-02-21T12:19:11.789Z,101593.06
2023-02-21T12:21:54.323Z,101589.44
2023-02-21T12:24:31.222Z,101590.06
2023-02-21T12:27:03.462Z,101582.81
2023-02-21T12:29:36.118Z,101582.22
2023-02-21T12:32:25.008Z,101580.31
2023-02-21T12:34:52.160Z,101577.81
2023-02-21T12:37:52.593Z,101569.97
2023-02-21T12:40:32.796Z,101559.06
2023-02-21T12:43:49.587Z,101573.03
2023-02-21T12:46:35.972Z,101558.06
2023-02-21T12:49:09.579Z,101556.84
2023-02-21T12:51:42.848Z,101556.72
2023-02-21T12:54:20.176Z,101560.66
2023-02-21T12:56:54.321Z,101552.16
2023-02-21T12:59:30.955Z,101555.75
2023-02-21T13:02:11.891Z,101535.28
2023-02-21T13:04:46.859Z,101541.16
2023-02-21T13:07:37.281Z,101550.59
2023-02-21T13:10:12.973Z,101537.75
2023-02-21T13:12:45.925Z,101542.22
2023-02-21T13:15:13.643Z,101542.88
2023-02-21T13:17:41.955Z,101535.75
2023-02-21T13:20:16.276Z,101534.03
2023-02-21T13:23:20.768Z,101536.38
2023-02-21T13:26:45.066Z,101523.31
2023-02-21T13:29:25.576Z,101517.47
2023-02-21T13:32:02.244Z,101506.63
2023-02-21T13:34:36.781Z,101505.44
2023-02-21T13:37:07.512Z,101508.56
2023-02-21T13:39:38.712Z,101507.53
2023-02-21T13:42:09.015Z,101494.53
2023-02-21T13:44:51.216Z,101497.69
2023-02-21T13:47:20.938Z,101507.31
2023-02-21T13:49:51.654Z,101503.78
2023-02-21T13:52:24.325Z,101494.75
2023-02-21T13:55:16.289Z,101496.34
2023-02-21T13:57:50.401Z,101496.06
2023-02-21T14:00:29.185Z,101489.00
2023-02-21T14:03:06.284Z,101486.84
2023-02-21T14:05:45.452Z,101486.41
2023-02-21T14:08:24.388Z,101483.41
2023-02-21T14:10:55.556Z,101481.03
2023-02-21T14:13:54.647Z,101470.97
2023-02-21T14:16:48.609Z,101471.19
2023-02-21T14:19:24.656Z,101470.94
2023-02-21T14:21:59.283Z,101461.47
2023-02-21T14:24:28.328Z,101473.63
2023-02-21T14:27:25.891Z,101468.97
2023-02-21T14:30:01.761Z,101469.31
2023-02-21T14:32:46.819Z,101462.25
2023-02-21T14:35:29.328Z,101461.38
2023-02-21T14:38:28.625Z,101458.50
2023-02-21T14:41:11.176Z,101461.03
2023-02-21T14:43:55.996Z,101454.63
2023-02-21T14:46:32.256Z,101450.59
2023-02-21T14:49:51.883Z,101452.63
2023-02-21T14:52:30.893Z,101449.59
2023-02-21T14:55:45.751Z,101445.16
2023-02-21T14:58:40.681Z,101443.47
2023-02-21T15:01:32.518Z,101445.75
2023-02-21T15:04:10.003Z,101439.53
2023-02-21T15:06:40.753Z,101442.47
2023-02-21T15:09:19.171Z,101438.53
2023-02-21T15:11:51.331Z,101445.47
2023-02-21T15:14:23.596Z,101447.69
2023-02-21T15:16:58.602Z,101447.53
2023-02-21T15:19:31.800Z,101437.63
2023-02-21T15:22:24.512Z,101441.47
2023-02-21T15:25:11.349Z,101436.28
2023-02-21T15:27:52.924Z,101433.69
2023-02-21T15:30:33.438Z,101436.38
2023-02-21T15:33:20.607Z,101424.44
2023-02-21T15:35:57.381Z,101437.19
2023-02-21T15:38:32.401Z,101433.97
2023-02-21T15:41:36.111Z,101425.34
2023-02-21T15:44:12.386Z,101424.16
2023-02-21T15:46:52.013Z,101425.91
2023-02-21T15:49:35.229Z,101422.72
2023-02-21T15:52:02.879Z,101428.94
2023-02-21T15:54:34.888Z,101418.41
2023-02-21T15:57:15.611Z,101417.81
2023-02-21T15:59:42.457Z,101419.06
2023-02-21T16:02:15.250Z,101413.81
2023-02-21T16:04:47.417Z,101411.63
2023-02-21T16:07:22.378Z,101409.41
2023-02-21T16:09:52.313Z,101407.81
2023-02-21T16:12:28.728Z,101416.84
2023-02-21T16:15:02.055Z,101410.38
2023-02-21T16:17:32.541Z,101415.22
2023-02-21T16:20:21.048Z,101408.34
2023-02-21T16:23:08.115Z,101399.25
2023-02-21T16:25:35.525Z,101402.19
2023-02-21T16:28:02.532Z,101397.97
2023-02-21T16:30:31.239Z,101393.47
2023-02-21T16:33:05.603Z,101394.13
2023-02-21T16:35:34.043Z,101400.69
2023-02-21T16:38:01.997Z,101401.03
2023-02-21T16:40:32.238Z,101396.16
2023-02-21T16:43:01.796Z,101398.25
2023-02-21T16:45:29.736Z,101406.75
2023-02-21T16:48:02.096Z,101400.97
2023-02-21T16:50:35.444Z,101409.94
2023-02-21T16:53:02.729Z,101402.25
2023-02-21T16:55:29.616Z,101410.44
2023-02-21T16:58:00.487Z,101405.31
2023-02-21T17:00:28.050Z,101403.41
2023-02-21T17:02:55.674Z,101400.31
2023-02-21T17:05:22.633Z,101397.78
2023-02-21T17:07:50.013Z,101406.69
2023-02-21T17:10:16.935Z,101396.56
2023-02-21T17:12:43.893Z,101395.75
2023-02-21T17:15:13.807Z,101388.78
2023-02-21T17:17:42.885Z,101390.50
2023-02-21T17:20:18.940Z,101397.22
2023-02-21T17:22:48.559Z,101397.22
2023-02-21T17:25:16.854Z,101398.47
2023-02-21T17:27:45.386Z,101403.78
2023-02-21T17:30:13.736Z,101394.63
2023-02-21T17:32:40.580Z,101393.84
2023-02-21T17:35:07.931Z,101393.63
2023-02-21T17:37:34.876Z,101394.63
2023-02-21T17:40:01.811Z,101391.91
2023-02-21T17:42:28.573Z,101393.84
2023-02-21T17:44:55.362Z,101383.56
2023-02-21T17:47:23.504Z,101390.75
2023-02-21T17:49:51.179Z,101383.66
2023-02-21T17:52:18.288Z,101384.44
2023-02-21T17:54:45.709Z,101381.75
2023-02-21T17:57:13.214Z,101376.63
2023-02-21T17:59:40.258Z,101375.50
2023-02-21T18:02:11.101Z,101383.59
2023-02-21T18:04:38.400Z,101383.75
2023-02-21T18:07:09.144Z,101372.69
2023-02-21T18:09:38.132Z,101376.47
2023-02-21T18:12:05.226Z,101373.50
2023-02-21T18:14:32.616Z,101372.47
2023-02-21T18:16:59.612Z,101366.09
2023-02-21T18:19:26.566Z,101365.38
2023-02-21T18:21:53.484Z,101351.94
2023-02-21T18:24:23.011Z,101349.81
2023-02-21T18:26:50.430Z,101358.16
2023-02-21T18:29:17.690Z,101355.38
2023-02-21T18:31:44.683Z,101355.81
2023-02-21T18:34:11.719Z,101357.13
2023-02-21T18:36:41.725Z,101353.53
2023-02-21T18:39:08.716Z,101348.66
2023-02-21T18:41:38.299Z,101344.75
2023-02-21T18:44:05.234Z,101340.88
2023-02-21T18:46:32.721Z,101340.03
2023-02-21T18:48:59.625Z,101346.94
2023-02-21T18:51:27.031Z,101340.59
2023-02-21T18:54:03.939Z,101342.41
2023-02-21T18:56:36.230Z,101333.88
2023-02-21T18:59:05.179Z,101335.72
2023-02-21T19:01:35.556Z,101336.72
2023-02-21T19:04:03.837Z,101326.53
2023-02-21T19:06:32.408Z,101335.66
2023-02-21T19:08:59.224Z,101343.25
2023-02-21T19:11:26.057Z,101327.41
2023-02-21T19:13:52.920Z,101323.41
2023-02-21T19:16:20.640Z,101322.00
2023-02-21T19:18:51.849Z,101325.50
2023-02-21T19:21:19.241Z,101317.06
2023-02-21T19:23:46.491Z,101315.44
2023-02-21T19:26:14.153Z,101318.06
2023-02-21T19:28:45.467Z,101315.28
2023-02-21T19:31:21.399Z,101315.19
2023-02-21T19:33:48.469Z,101314.25
2023-02-21T19:36:15.230Z,101306.44
2023-02-21T19:38:41.992Z,101306.94
2023-02-21T19:41:09.171Z,101303.84
2023-02-21T19:43:36.206Z,101309.66
2023-02-21T19:46:03.490Z,101310.97
2023-02-21T19:48:30.558Z,101302.88
2023-02-21T19:50:57.488Z,101296.25
2023-02-21T19:53:24.277Z,101300.44
2023-02-21T19:55:51.064Z,101285.63
2023-02-21T19:58:20.051Z,101290.31
2023-02-21T20:00:47.235Z,101289.59
2023-02-21T20:03:14.419Z,101293.31
2023-02-21T20:05:45.849Z,101302.97
2023-02-21T20:08:15.863Z,101293.31
2023-02-21T20:10:52.015Z,101291.69
2023-02-21T20:13:21.740Z,101292.34
2023-02-21T20:15:50.713Z,101293.75
2023-02-21T20:18:18.014Z,101281.59
2023-02-21T20:20:44.814Z,101285.69
2023-02-21T20:23:12.308Z,101287.25
2023-02-21T20:25:39.148Z,101277.06
2023-02-21T20:28:07.381Z,101283.28
2023-02-21T20:30:34.377Z,101279.34
2023-02-21T20:33:01.726Z,101277.56
2023-02-21T20:35:29.715Z,101275.53
2023-02-21T20:38:00.940Z,101273.25
2023-02-21T20:40:28.927Z,101276.06
2023-02-21T20:43:04.340Z,101265.13
2023-02-21T20:45:31.598Z,101259.91
2023-02-21T20:47:58.385Z,101263.53
2023-02-21T20:50:25.326Z,101254.06
2023-02-21T20:52:52.403Z,101259.81
2023-02-21T20:55:22.423Z,101246.56
2023-02-21T20:57:49.977Z,101254.16
2023-02-21T21:00:23.392Z,101242.38
2023-02-21T21:02:51.446Z,101251.47
2023-02-21T21:05:18.705Z,101241.84
2023-02-21T21:07:46.387Z,101244.72
2023-02-21T21:10:15.718Z,101241.94
2023-02-21T21:12:43.740Z,101243.09
2023-02-21T21:15:10.841Z,101232.97
2023-02-21T21:17:39.371Z,101225.31
2023-02-21T21:20:10.417Z,101235.00
2023-02-21T21:22:37.271Z,101226.72
2023-02-21T21:25:04.919Z,101225.59
2023-02-21T21:27:32.882Z,101227.19
2023-02-21T21:30:01.169Z,101213.38
2023-02-21T21:32:28.487Z,101218.75
2023-02-21T21:34:57.728Z,101216.47
2023-02-21T21:37:27.901Z,101218.03
2023-02-21T21:39:55.376Z,101212.25
2023-02-21T21:42:26.440Z,101213.53
2023-02-21T21:44:55.714Z,101213.66
2023-02-21T21:47:24.947Z,101206.81
2023-02-21T21:49:51.728Z,101198.06
2023-02-21T21:52:19.914Z,101197.84
2023-02-21T21:54:47.753Z,101194.75
2023-02-21T21:57:16.764Z,101182.03
2023-02-21T21:59:44.224Z,101185.03
2023-02-21T22:02:11.776Z,101181.59
2023-02-21T22:04:39.709Z,101175.94
2023-02-21T22:07:08.020Z,101177.81
2023-02-21T22:09:36.446Z,101161.09
2023-02-21T22:12:04.366Z,101167.66
2023-02-21T22:14:31.230Z,101164.03
2023-02-21T22:16:58.485Z,101161.72
2023-02-21T22:19:27.019Z,101163.13
2023-02-21T22:21:58.459Z,101160.88
2023-02-21T22:24:25.538Z,101153.69
2023-02-21T22:26:54.370Z,101155.59
2023-02-21T22:29:22.715Z,101148.38
2023-02-21T22:31:52.388Z,101151.47
2023-02-21T22:34:25.748Z,101149.91
2023-02-21T22:36:54.411Z,101153.75
2023-02-21T22:39:22.312Z,101160.66
2023-02-21T22:41:49.384Z,101156.56
2023-02-21T22:44:17.015Z,101168.19
2023-02-21T22:46:46.991Z,101163.56
2023-02-21T22:49:16.823Z,101160.00
2023-02-21T22:51:43.664Z,101162.16
2023-02-21T22:54:14.464Z,101158.84
2023-02-21T22:56:50.909Z,101156.94
2023-02-21T22:59:25.809Z,101163.13
2023-02-21T23:01:53.385Z,101164.06
2023-02-21T23:04:26.554Z,101158.88
2023-02-21T23:07:00.301Z,101150.03
2023-02-21T23:09:28.831Z,101146.03
2023-02-21T23:11:58.515Z,101147.53
2023-02-21T23:14:26.227Z,101140.28
2023-02-21T23:16:57.277Z,101145.59
2023-02-21T23:19:25.595Z,101140.34
2023-02-21T23:21:53.262Z,101125.97
2023-02-21T23:24:21.540Z,101135.41
2023-02-21T23:26:49.471Z,101136.50
2023-02-21T23:29:19.655Z,101145.81
2023-02-21T23:31:47.710Z,101138.31
2023-02-21T23:34:14.694Z,101137.50
2023-02-21T23:36:41.758Z,101145.94
2023-02-21T23:39:09.895Z,101142.50
2023-02-21T23:41:41.179Z,101137.81
2023-02-21T23:44:12.852Z,101133.72
2023-02-21T23:46:42.448Z,101137.47
2023-02-21T23:49:15.816Z,101131.19
2023-02-21T23:51:43.906Z,101129.03
2023-02-21T23:54:11.788Z,101131.22
2023-02-21T23:56:40.287Z,101139.81
2023-02-21T23:59:07.868Z,101132.88
